Kendleton, Texas
Current Conditions -  °F | °C
As of 7:15 AM on Wednesday 22 Oct 2014 (Local Time) from KARM Reporting Station
Clear Clear  
Wind Chill: 60°   Ceiling: Unl
Heat Index: 60°   Visibility: 10mi
Dew Point: 59°   Wind: 5mph
Humidity: 94%   Direction: 30°NNE
Pressure: 30.06"   Gusts: NA
Location:  29.45°N, 95.99°W
Report Text: KARM 221215Z AUTO 03004KT 10SM CLR 16/15 A3006 RMK AO2 T01570148
Loading
Personal Weather Stations






























Interactive Weather Map
Tropical Storm Tracking
New forecast layout! Learn more

10-Day Weather Forecast

Advertisements
Track Severe Weather on mobile